sensor_id;sensor_type;location;lat;lon;timestamp;temperature;humidity
44817;DHT22;30529;53.570;9.964;2023-07-24T00:01:36;18.20;99.90
44817;DHT22;30529;53.570;9.964;2023-07-24T00:04:02;18.20;99.90
44817;DHT22;30529;53.570;9.964;2023-07-24T00:06:28;18.20;99.90
44817;DHT22;30529;53.570;9.964;2023-07-24T00:08:54;18.20;99.90
44817;DHT22;30529;53.570;9.964;2023-07-24T00:11:20;18.20;99.90
44817;DHT22;30529;53.570;9.964;2023-07-24T00:13:46;18.20;99.90
44817;DHT22;30529;53.570;9.964;2023-07-24T00:16:12;18.20;99.90
44817;DHT22;30529;53.570;9.964;2023-07-24T00:18:38;18.20;99.90
44817;DHT22;30529;53.570;9.964;2023-07-24T00:21:04;18.20;99.90
44817;DHT22;30529;53.570;9.964;2023-07-24T00:23:30;18.20;99.90
44817;DHT22;30529;53.570;9.964;2023-07-24T00:25:56;18.20;99.90
44817;DHT22;30529;53.570;9.964;2023-07-24T00:28:22;18.20;99.90
44817;DHT22;30529;53.570;9.964;2023-07-24T00:30:48;18.20;99.90
44817;DHT22;30529;53.570;9.964;2023-07-24T00:33:14;18.20;99.90
44817;DHT22;30529;53.570;9.964;2023-07-24T00:35:40;18.10;99.90
44817;DHT22;30529;53.570;9.964;2023-07-24T00:38:05;18.10;99.90
44817;DHT22;30529;53.570;9.964;2023-07-24T00:40:32;18.10;99.90
44817;DHT22;30529;53.570;9.964;2023-07-24T00:42:57;18.10;99.90
44817;DHT22;30529;53.570;9.964;2023-07-24T00:45:24;18.10;99.90
44817;DHT22;30529;53.570;9.964;2023-07-24T00:47:50;18.10;99.90
44817;DHT22;30529;53.570;9.964;2023-07-24T00:50:17;18.00;99.90
44817;DHT22;30529;53.570;9.964;2023-07-24T00:52:43;18.10;99.90
44817;DHT22;30529;53.570;9.964;2023-07-24T00:55:11;18.10;99.90
44817;DHT22;30529;53.570;9.964;2023-07-24T00:57:38;18.10;99.90
44817;DHT22;30529;53.570;9.964;2023-07-24T01:00:12;18.20;99.90
44817;DHT22;30529;53.570;9.964;2023-07-24T01:02:38;18.20;99.90
44817;DHT22;30529;53.570;9.964;2023-07-24T01:05:05;18.20;99.90
44817;DHT22;30529;53.570;9.964;2023-07-24T01:07:31;18.20;99.90
44817;DHT22;30529;53.570;9.964;2023-07-24T01:09:57;18.20;99.90
44817;DHT22;30529;53.570;9.964;2023-07-24T01:12:31;18.20;99.90
44817;DHT22;30529;53.570;9.964;2023-07-24T01:18:14;18.20;99.90
44817;DHT22;30529;53.570;9.964;2023-07-24T01:20:51;18.20;99.90
44817;DHT22;30529;53.570;9.964;2023-07-24T01:23:51;18.20;99.90
44817;DHT22;30529;53.570;9.964;2023-07-24T01:26:21;18.20;99.90
44817;DHT22;30529;53.570;9.964;2023-07-24T01:28:49;18.20;99.90
44817;DHT22;30529;53.570;9.964;2023-07-24T01:31:15;18.30;99.90
44817;DHT22;30529;53.570;9.964;2023-07-24T01:33:43;18.20;99.90
44817;DHT22;30529;53.570;9.964;2023-07-24T01:36:10;18.30;99.90
44817;DHT22;30529;53.570;9.964;2023-07-24T01:38:38;18.30;99.90
44817;DHT22;30529;53.570;9.964;2023-07-24T01:41:04;18.30;99.90
44817;DHT22;30529;53.570;9.964;2023-07-24T01:43:30;18.30;99.90
44817;DHT22;30529;53.570;9.964;2023-07-24T01:45:58;18.20;99.90
44817;DHT22;30529;53.570;9.964;2023-07-24T01:48:24;18.20;99.90
44817;DHT22;30529;53.570;9.964;2023-07-24T01:50:50;18.30;99.90
44817;DHT22;30529;53.570;9.964;2023-07-24T01:53:16;18.30;99.90
44817;DHT22;30529;53.570;9.964;2023-07-24T01:55:42;18.30;99.90
44817;DHT22;30529;53.570;9.964;2023-07-24T01:58:08;18.30;99.90
44817;DHT22;30529;53.570;9.964;2023-07-24T02:00:34;18.20;99.90
44817;DHT22;30529;53.570;9.964;2023-07-24T02:03:01;18.30;99.90
44817;DHT22;30529;53.570;9.964;2023-07-24T02:05:27;18.20;99.90
44817;DHT22;30529;53.570;9.964;2023-07-24T02:07:53;18.30;99.90
44817;DHT22;30529;53.570;9.964;2023-07-24T02:10:19;18.20;99.90
44817;DHT22;30529;53.570;9.964;2023-07-24T02:12:45;18.30;99.90
44817;DHT22;30529;53.570;9.964;2023-07-24T02:15:11;18.30;99.90
44817;DHT22;30529;53.570;9.964;2023-07-24T02:17:37;18.20;99.90
44817;DHT22;30529;53.570;9.964;2023-07-24T02:20:05;18.20;99.90
44817;DHT22;30529;53.570;9.964;2023-07-24T02:22:31;18.20;99.90
44817;DHT22;30529;53.570;9.964;2023-07-24T02:24:57;18.20;99.90
44817;DHT22;30529;53.570;9.964;2023-07-24T02:27:28;18.20;99.90
44817;DHT22;30529;53.570;9.964;2023-07-24T02:29:54;18.10;99.90
44817;DHT22;30529;53.570;9.964;2023-07-24T02:32:20;18.10;99.90
44817;DHT22;30529;53.570;9.964;2023-07-24T02:34:51;18.10;99.90
44817;DHT22;30529;53.570;9.964;2023-07-24T02:37:18;18.10;99.90
44817;DHT22;30529;53.570;9.964;2023-07-24T02:39:45;18.10;99.90
44817;DHT22;30529;53.570;9.964;2023-07-24T02:42:11;18.10;99.90
44817;DHT22;30529;53.570;9.964;2023-07-24T02:44:37;18.00;99.90
44817;DHT22;30529;53.570;9.964;2023-07-24T02:47:03;18.00;99.90
44817;DHT22;30529;53.570;9.964;2023-07-24T02:49:30;18.00;99.90
44817;DHT22;30529;53.570;9.964;2023-07-24T02:51:56;18.00;99.90
44817;DHT22;30529;53.570;9.964;2023-07-24T02:54:22;18.00;99.90
44817;DHT22;30529;53.570;9.964;2023-07-24T02:56:48;18.00;99.90
44817;DHT22;30529;53.570;9.964;2023-07-24T02:59:14;18.00;99.90
44817;DHT22;30529;53.570;9.964;2023-07-24T03:01:40;18.00;99.90
44817;DHT22;30529;53.570;9.964;2023-07-24T03:04:05;18.00;99.90
44817;DHT22;30529;53.570;9.964;2023-07-24T03:06:32;18.00;99.90
44817;DHT22;30529;53.570;9.964;2023-07-24T03:08:58;18.00;99.90
44817;DHT22;30529;53.570;9.964;2023-07-24T03:11:24;18.10;99.90
44817;DHT22;30529;53.570;9.964;2023-07-24T03:13:50;18.10;99.90
44817;DHT22;30529;53.570;9.964;2023-07-24T03:16:16;18.10;99.90
44817;DHT22;30529;53.570;9.964;2023-07-24T03:18:46;18.10;99.90
44817;DHT22;30529;53.570;9.964;2023-07-24T03:21:13;18.10;99.90
44817;DHT22;30529;53.570;9.964;2023-07-24T03:23:39;18.20;99.90
44817;DHT22;30529;53.570;9.964;2023-07-24T03:26:05;18.20;99.90
44817;DHT22;30529;53.570;9.964;2023-07-24T03:28:31;18.20;99.90
44817;DHT22;30529;53.570;9.964;2023-07-24T03:30:57;18.20;99.90
44817;DHT22;30529;53.570;9.964;2023-07-24T03:33:23;18.20;99.90
44817;DHT22;30529;53.570;9.964;2023-07-24T03:35:49;18.20;99.90
44817;DHT22;30529;53.570;9.964;2023-07-24T03:38:15;18.10;99.90
44817;DHT22;30529;53.570;9.964;2023-07-24T03:40:41;18.20;99.90
44817;DHT22;30529;53.570;9.964;2023-07-24T03:43:07;18.20;99.90
44817;DHT22;30529;53.570;9.964;2023-07-24T03:45:32;18.20;99.90
44817;DHT22;30529;53.570;9.964;2023-07-24T03:47:58;18.20;99.90
44817;DHT22;30529;53.570;9.964;2023-07-24T03:50:24;18.10;99.90
44817;DHT22;30529;53.570;9.964;2023-07-24T03:52:51;18.10;99.90
44817;DHT22;30529;53.570;9.964;2023-07-24T03:55:16;18.10;99.90
44817;DHT22;30529;53.570;9.964;2023-07-24T03:57:42;18.10;99.90
44817;DHT22;30529;53.570;9.964;2023-07-24T04:00:09;18.10;99.90
44817;DHT22;30529;53.570;9.964;2023-07-24T04:02:35;18.10;99.90
44817;DHT22;30529;53.570;9.964;2023-07-24T04:05:01;18.10;99.90
44817;DHT22;30529;53.570;9.964;2023-07-24T04:07:27;18.10;99.90
44817;DHT22;30529;53.570;9.964;2023-07-24T04:09:53;18.10;99.90
44817;DHT22;30529;53.570;9.964;2023-07-24T04:12:19;18.10;99.90
44817;DHT22;30529;53.570;9.964;2023-07-24T04:14:45;18.20;99.90
44817;DHT22;30529;53.570;9.964;2023-07-24T04:17:12;18.20;99.90
44817;DHT22;30529;53.570;9.964;2023-07-24T04:19:38;18.20;99.90
44817;DHT22;30529;53.570;9.964;2023-07-24T04:22:04;18.20;99.90
44817;DHT22;30529;53.570;9.964;2023-07-24T04:24:30;18.30;99.90
44817;DHT22;30529;53.570;9.964;2023-07-24T04:26:56;18.40;99.90
44817;DHT22;30529;53.570;9.964;2023-07-24T04:29:22;18.60;99.90
44817;DHT22;30529;53.570;9.964;2023-07-24T04:31:50;18.80;99.90
44817;DHT22;30529;53.570;9.964;2023-07-24T04:34:16;18.80;99.90
44817;DHT22;30529;53.570;9.964;2023-07-24T04:36:42;18.80;99.90
44817;DHT22;30529;53.570;9.964;2023-07-24T04:39:08;18.90;99.90
44817;DHT22;30529;53.570;9.964;2023-07-24T04:41:34;19.00;99.90
44817;DHT22;30529;53.570;9.964;2023-07-24T04:44:00;18.90;99.90
44817;DHT22;30529;53.570;9.964;2023-07-24T04:46:26;18.90;99.90
44817;DHT22;30529;53.570;9.964;2023-07-24T04:48:52;19.00;99.90
44817;DHT22;30529;53.570;9.964;2023-07-24T04:51:18;19.10;99.90
44817;DHT22;30529;53.570;9.964;2023-07-24T04:53:45;19.10;99.90
44817;DHT22;30529;53.570;9.964;2023-07-24T04:56:11;19.10;99.90
44817;DHT22;30529;53.570;9.964;2023-07-24T04:58:36;19.20;99.90
44817;DHT22;30529;53.570;9.964;2023-07-24T05:01:03;19.20;99.90
44817;DHT22;30529;53.570;9.964;2023-07-24T05:03:33;19.10;99.90
44817;DHT22;30529;53.570;9.964;2023-07-24T05:05:59;19.10;99.90
44817;DHT22;30529;53.570;9.964;2023-07-24T05:08:25;19.00;99.90
44817;DHT22;30529;53.570;9.964;2023-07-24T05:10:56;19.00;99.90
44817;DHT22;30529;53.570;9.964;2023-07-24T05:13:22;19.00;99.90
44817;DHT22;30529;53.570;9.964;2023-07-24T05:15:48;19.00;99.90
44817;DHT22;30529;53.570;9.964;2023-07-24T05:18:14;19.00;99.90
44817;DHT22;30529;53.570;9.964;2023-07-24T05:20:47;19.00;99.90
44817;DHT22;30529;53.570;9.964;2023-07-24T05:23:14;19.00;99.90
44817;DHT22;30529;53.570;9.964;2023-07-24T05:25:40;19.10;99.90
44817;DHT22;30529;53.570;9.964;2023-07-24T05:28:07;19.10;99.90
44817;DHT22;30529;53.570;9.964;2023-07-24T05:30:33;19.20;99.90
44817;DHT22;30529;53.570;9.964;2023-07-24T05:32:59;19.30;99.90
44817;DHT22;30529;53.570;9.964;2023-07-24T05:35:25;19.30;99.90
44817;DHT22;30529;53.570;9.964;2023-07-24T05:37:51;19.20;99.90
44817;DHT22;30529;53.570;9.964;2023-07-24T05:40:17;19.10;99.90
44817;DHT22;30529;53.570;9.964;2023-07-24T05:42:43;19.10;99.90
44817;DHT22;30529;53.570;9.964;2023-07-24T05:45:10;19.10;99.90
44817;DHT22;30529;53.570;9.964;2023-07-24T05:47:40;19.20;99.90
44817;DHT22;30529;53.570;9.964;2023-07-24T05:50:06;19.30;99.90
44817;DHT22;30529;53.570;9.964;2023-07-24T05:52:32;19.30;99.90
44817;DHT22;30529;53.570;9.964;2023-07-24T05:54:59;19.30;99.90
44817;DHT22;30529;53.570;9.964;2023-07-24T05:57:24;19.30;99.90
44817;DHT22;30529;53.570;9.964;2023-07-24T05:59:50;19.20;99.90
44817;DHT22;30529;53.570;9.964;2023-07-24T06:02:18;19.10;99.90
44817;DHT22;30529;53.570;9.964;2023-07-24T06:04:44;19.10;99.90
44817;DHT22;30529;53.570;9.964;2023-07-24T06:07:10;19.10;99.90
44817;DHT22;30529;53.570;9.964;2023-07-24T06:09:36;19.10;99.90
44817;DHT22;30529;53.570;9.964;2023-07-24T06:12:02;19.10;99.90
44817;DHT22;30529;53.570;9.964;2023-07-24T06:14:28;19.10;99.90
44817;DHT22;30529;53.570;9.964;2023-07-24T06:16:54;19.10;99.90
44817;DHT22;30529;53.570;9.964;2023-07-24T06:19:20;19.10;99.90
44817;DHT22;30529;53.570;9.964;2023-07-24T06:21:47;19.30;99.90
44817;DHT22;30529;53.570;9.964;2023-07-24T06:24:13;19.40;99.90
44817;DHT22;30529;53.570;9.964;2023-07-24T06:26:39;19.50;99.90
44817;DHT22;30529;53.570;9.964;2023-07-24T06:29:05;19.60;99.90
44817;DHT22;30529;53.570;9.964;2023-07-24T06:31:31;19.80;99.90
44817;DHT22;30529;53.570;9.964;2023-07-24T06:33:57;20.00;99.90
44817;DHT22;30529;53.570;9.964;2023-07-24T06:36:23;19.90;99.90
44817;DHT22;30529;53.570;9.964;2023-07-24T06:38:49;19.80;99.90
44817;DHT22;30529;53.570;9.964;2023-07-24T06:41:15;19.90;99.90
44817;DHT22;30529;53.570;9.964;2023-07-24T06:43:42;19.90;99.90
44817;DHT22;30529;53.570;9.964;2023-07-24T06:46:08;19.80;99.90
44817;DHT22;30529;53.570;9.964;2023-07-24T06:48:34;19.80;99.90
44817;DHT22;30529;53.570;9.964;2023-07-24T06:51:00;19.80;99.90
44817;DHT22;30529;53.570;9.964;2023-07-24T06:53:26;19.60;99.90
44817;DHT22;30529;53.570;9.964;2023-07-24T06:55:52;19.70;99.90
44817;DHT22;30529;53.570;9.964;2023-07-24T06:58:18;19.80;99.90
44817;DHT22;30529;53.570;9.964;2023-07-24T07:00:44;19.90;99.90
44817;DHT22;30529;53.570;9.964;2023-07-24T07:03:10;20.00;99.90
44817;DHT22;30529;53.570;9.964;2023-07-24T07:05:37;19.90;99.90
44817;DHT22;30529;53.570;9.964;2023-07-24T07:08:03;19.90;99.90
44817;DHT22;30529;53.570;9.964;2023-07-24T07:10:31;19.80;99.90
44817;DHT22;30529;53.570;9.964;2023-07-24T07:12:57;19.70;99.90
44817;DHT22;30529;53.570;9.964;2023-07-24T07:15:23;19.60;99.90
44817;DHT22;30529;53.570;9.964;2023-07-24T07:17:49;19.60;99.90
44817;DHT22;30529;53.570;9.964;2023-07-24T07:20:16;19.50;99.90
44817;DHT22;30529;53.570;9.964;2023-07-24T07:22:42;19.50;99.90
44817;DHT22;30529;53.570;9.964;2023-07-24T07:25:08;19.50;99.90
44817;DHT22;30529;53.570;9.964;2023-07-24T07:27:34;19.50;99.90
44817;DHT22;30529;53.570;9.964;2023-07-24T07:30:00;19.50;99.90
44817;DHT22;30529;53.570;9.964;2023-07-24T07:32:27;19.50;99.90
44817;DHT22;30529;53.570;9.964;2023-07-24T07:34:53;19.50;99.90
44817;DHT22;30529;53.570;9.964;2023-07-24T07:37:19;19.40;99.90
44817;DHT22;30529;53.570;9.964;2023-07-24T07:39:45;19.40;99.90
44817;DHT22;30529;53.570;9.964;2023-07-24T07:42:11;19.40;99.90
44817;DHT22;30529;53.570;9.964;2023-07-24T07:44:37;19.40;99.90
44817;DHT22;30529;53.570;9.964;2023-07-24T07:47:03;19.40;99.90
44817;DHT22;30529;53.570;9.964;2023-07-24T07:49:29;19.40;99.90
44817;DHT22;30529;53.570;9.964;2023-07-24T07:51:55;19.50;99.90
44817;DHT22;30529;53.570;9.964;2023-07-24T07:54:21;19.50;99.90
44817;DHT22;30529;53.570;9.964;2023-07-24T07:56:47;19.50;99.90
44817;DHT22;30529;53.570;9.964;2023-07-24T07:59:13;19.60;99.90
44817;DHT22;30529;53.570;9.964;2023-07-24T08:01:39;19.70;99.90
44817;DHT22;30529;53.570;9.964;2023-07-24T08:04:05;19.80;99.90
44817;DHT22;30529;53.570;9.964;2023-07-24T08:06:31;19.90;99.90
44817;DHT22;30529;53.570;9.964;2023-07-24T08:08:57;20.00;99.90
44817;DHT22;30529;53.570;9.964;2023-07-24T08:11:23;20.10;99.90
44817;DHT22;30529;53.570;9.964;2023-07-24T08:13:50;20.20;99.90
44817;DHT22;30529;53.570;9.964;2023-07-24T08:16:16;20.20;99.90
44817;DHT22;30529;53.570;9.964;2023-07-24T08:18:46;20.20;99.90
44817;DHT22;30529;53.570;9.964;2023-07-24T08:21:13;20.20;99.90
44817;DHT22;30529;53.570;9.964;2023-07-24T08:23:42;20.20;99.90
44817;DHT22;30529;53.570;9.964;2023-07-24T08:26:08;20.30;99.90
44817;DHT22;30529;53.570;9.964;2023-07-24T08:28:34;20.40;99.90
44817;DHT22;30529;53.570;9.964;2023-07-24T08:31:02;20.50;99.90
44817;DHT22;30529;53.570;9.964;2023-07-24T08:33:28;20.50;99.90
44817;DHT22;30529;53.570;9.964;2023-07-24T08:36:06;20.50;99.90
44817;DHT22;30529;53.570;9.964;2023-07-24T08:38:33;20.40;99.90
44817;DHT22;30529;53.570;9.964;2023-07-24T08:41:06;20.40;99.90
44817;DHT22;30529;53.570;9.964;2023-07-24T08:43:34;20.40;99.90
44817;DHT22;30529;53.570;9.964;2023-07-24T08:46:02;20.40;99.90
44817;DHT22;30529;53.570;9.964;2023-07-24T08:48:36;20.50;99.90
44817;DHT22;30529;53.570;9.964;2023-07-24T08:51:12;20.40;99.90
44817;DHT22;30529;53.570;9.964;2023-07-24T08:53:40;20.40;99.90
44817;DHT22;30529;53.570;9.964;2023-07-24T08:56:08;20.60;99.90
44817;DHT22;30529;53.570;9.964;2023-07-24T08:58:35;20.80;99.90
44817;DHT22;30529;53.570;9.964;2023-07-24T09:01:03;20.80;99.90
44817;DHT22;30529;53.570;9.964;2023-07-24T09:03:30;20.90;99.90
44817;DHT22;30529;53.570;9.964;2023-07-24T09:05:57;20.80;99.90
44817;DHT22;30529;53.570;9.964;2023-07-24T09:10:58;20.80;99.90
44817;DHT22;30529;53.570;9.964;2023-07-24T09:13:24;20.90;99.90
44817;DHT22;30529;53.570;9.964;2023-07-24T09:15:50;21.00;99.90
44817;DHT22;30529;53.570;9.964;2023-07-24T09:18:16;21.00;99.90
44817;DHT22;30529;53.570;9.964;2023-07-24T09:20:44;21.00;99.90
44817;DHT22;30529;53.570;9.964;2023-07-24T09:23:12;21.00;99.90
44817;DHT22;30529;53.570;9.964;2023-07-24T09:25:39;21.10;99.90
44817;DHT22;30529;53.570;9.964;2023-07-24T09:28:16;21.00;99.90
44817;DHT22;30529;53.570;9.964;2023-07-24T09:30:52;21.00;99.90
44817;DHT22;30529;53.570;9.964;2023-07-24T09:33:18;20.90;99.90
44817;DHT22;30529;53.570;9.964;2023-07-24T09:35:44;21.00;99.90
44817;DHT22;30529;53.570;9.964;2023-07-24T09:38:11;21.00;99.90
44817;DHT22;30529;53.570;9.964;2023-07-24T09:40:45;21.10;99.90
44817;DHT22;30529;53.570;9.964;2023-07-24T09:43:18;21.20;99.90
44817;DHT22;30529;53.570;9.964;2023-07-24T09:45:46;21.30;99.90
44817;DHT22;30529;53.570;9.964;2023-07-24T09:48:13;21.30;99.90
44817;DHT22;30529;53.570;9.964;2023-07-24T09:50:49;21.40;99.90
44817;DHT22;30529;53.570;9.964;2023-07-24T09:56:02;21.20;99.90
44817;DHT22;30529;53.570;9.964;2023-07-24T09:58:31;21.10;99.90
44817;DHT22;30529;53.570;9.964;2023-07-24T10:00:58;21.10;99.90
44817;DHT22;30529;53.570;9.964;2023-07-24T10:03:25;21.20;99.90
44817;DHT22;30529;53.570;9.964;2023-07-24T10:05:52;21.20;99.90
44817;DHT22;30529;53.570;9.964;2023-07-24T10:08:19;21.30;99.90
44817;DHT22;30529;53.570;9.964;2023-07-24T10:10:45;21.50;99.90
44817;DHT22;30529;53.570;9.964;2023-07-24T10:13:13;21.60;99.90
44817;DHT22;30529;53.570;9.964;2023-07-24T10:15:41;21.60;99.90
44817;DHT22;30529;53.570;9.964;2023-07-24T10:18:09;21.60;99.90
44817;DHT22;30529;53.570;9.964;2023-07-24T10:20:38;21.70;99.90
44817;DHT22;30529;53.570;9.964;2023-07-24T10:23:05;21.70;99.90
44817;DHT22;30529;53.570;9.964;2023-07-24T10:25:33;21.80;99.90
44817;DHT22;30529;53.570;9.964;2023-07-24T10:28:04;21.80;99.90
44817;DHT22;30529;53.570;9.964;2023-07-24T10:30:37;21.80;99.90
44817;DHT22;30529;53.570;9.964;2023-07-24T10:33:18;21.90;99.90
44817;DHT22;30529;53.570;9.964;2023-07-24T10:35:53;22.00;99.90
44817;DHT22;30529;53.570;9.964;2023-07-24T10:38:19;22.00;99.90
44817;DHT22;30529;53.570;9.964;2023-07-24T10:40:46;22.00;99.90
44817;DHT22;30529;53.570;9.964;2023-07-24T10:43:19;22.00;99.90
44817;DHT22;30529;53.570;9.964;2023-07-24T10:45:48;22.00;99.90
44817;DHT22;30529;53.570;9.964;2023-07-24T10:48:16;22.00;99.90
44817;DHT22;30529;53.570;9.964;2023-07-24T10:50:47;21.90;99.90
44817;DHT22;30529;53.570;9.964;2023-07-24T10:53:18;21.90;99.90
44817;DHT22;30529;53.570;9.964;2023-07-24T10:55:46;21.80;99.90
44817;DHT22;30529;53.570;9.964;2023-07-24T10:58:13;21.70;99.90
44817;DHT22;30529;53.570;9.964;2023-07-24T11:00:43;21.70;99.90
44817;DHT22;30529;53.570;9.964;2023-07-24T11:03:10;21.70;99.90
44817;DHT22;30529;53.570;9.964;2023-07-24T11:05:44;21.70;99.90
44817;DHT22;30529;53.570;9.964;2023-07-24T11:08:15;21.70;99.90
44817;DHT22;30529;53.570;9.964;2023-07-24T11:10:52;21.70;99.90
44817;DHT22;30529;53.570;9.964;2023-07-24T11:13:23;21.80;99.90
44817;DHT22;30529;53.570;9.964;2023-07-24T11:15:50;21.80;99.90
44817;DHT22;30529;53.570;9.964;2023-07-24T11:18:16;21.80;99.90
44817;DHT22;30529;53.570;9.964;2023-07-24T11:20:47;21.80;99.90
44817;DHT22;30529;53.570;9.964;2023-07-24T11:23:14;21.90;99.90
44817;DHT22;30529;53.570;9.964;2023-07-24T11:25:41;21.90;99.90
44817;DHT22;30529;53.570;9.964;2023-07-24T11:28:09;21.90;99.90
44817;DHT22;30529;53.570;9.964;2023-07-24T11:30:35;22.10;99.90
44817;DHT22;30529;53.570;9.964;2023-07-24T11:33:03;22.10;99.90
44817;DHT22;30529;53.570;9.964;2023-07-24T11:35:30;22.10;99.90
44817;DHT22;30529;53.570;9.964;2023-07-24T11:37:56;22.10;99.90
44817;DHT22;30529;53.570;9.964;2023-07-24T11:40:37;22.20;99.90
44817;DHT22;30529;53.570;9.964;2023-07-24T11:43:04;22.30;99.90
44817;DHT22;30529;53.570;9.964;2023-07-24T11:45:30;22.40;99.90
44817;DHT22;30529;53.570;9.964;2023-07-24T11:47:57;22.40;99.90
44817;DHT22;30529;53.570;9.964;2023-07-24T11:50:23;22.60;99.90
44817;DHT22;30529;53.570;9.964;2023-07-24T11:52:51;22.60;99.90
44817;DHT22;30529;53.570;9.964;2023-07-24T11:55:19;22.60;99.90
44817;DHT22;30529;53.570;9.964;2023-07-24T11:57:56;22.80;99.90
44817;DHT22;30529;53.570;9.964;2023-07-24T12:00:23;22.80;99.90
44817;DHT22;30529;53.570;9.964;2023-07-24T12:02:50;22.70;99.90
44817;DHT22;30529;53.570;9.964;2023-07-24T12:05:16;22.80;99.90
44817;DHT22;30529;53.570;9.964;2023-07-24T12:07:43;22.90;99.90
44817;DHT22;30529;53.570;9.964;2023-07-24T12:10:12;22.80;99.90
44817;DHT22;30529;53.570;9.964;2023-07-24T12:12:46;22.70;99.90
44817;DHT22;30529;53.570;9.964;2023-07-24T12:15:13;22.70;99.90
44817;DHT22;30529;53.570;9.964;2023-07-24T12:17:40;22.70;99.90
44817;DHT22;30529;53.570;9.964;2023-07-24T12:20:07;22.80;99.90
44817;DHT22;30529;53.570;9.964;2023-07-24T12:22:38;22.80;99.90
44817;DHT22;30529;53.570;9.964;2023-07-24T12:25:05;22.80;99.90
44817;DHT22;30529;53.570;9.964;2023-07-24T12:27:31;22.80;99.90
44817;DHT22;30529;53.570;9.964;2023-07-24T12:29:58;22.70;99.90
44817;DHT22;30529;53.570;9.964;2023-07-24T12:32:25;22.50;99.90
44817;DHT22;30529;53.570;9.964;2023-07-24T12:34:52;22.60;99.90
44817;DHT22;30529;53.570;9.964;2023-07-24T12:37:18;22.60;99.90
44817;DHT22;30529;53.570;9.964;2023-07-24T12:39:45;22.70;99.90
44817;DHT22;30529;53.570;9.964;2023-07-24T12:42:12;22.80;99.90
44817;DHT22;30529;53.570;9.964;2023-07-24T12:44:38;22.80;99.90
44817;DHT22;30529;53.570;9.964;2023-07-24T12:47:05;22.90;99.90
44817;DHT22;30529;53.570;9.964;2023-07-24T12:49:31;22.90;99.90
44817;DHT22;30529;53.570;9.964;2023-07-24T12:51:57;23.00;99.90
44817;DHT22;30529;53.570;9.964;2023-07-24T12:54:23;23.00;99.90
44817;DHT22;30529;53.570;9.964;2023-07-24T12:56:50;23.00;99.90
44817;DHT22;30529;53.570;9.964;2023-07-24T12:59:17;23.00;99.90
44817;DHT22;30529;53.570;9.964;2023-07-24T13:01:44;23.00;99.90
44817;DHT22;30529;53.570;9.964;2023-07-24T13:04:10;23.00;99.90
44817;DHT22;30529;53.570;9.964;2023-07-24T13:06:36;22.90;99.90
44817;DHT22;30529;53.570;9.964;2023-07-24T13:09:02;22.90;99.90
44817;DHT22;30529;53.570;9.964;2023-07-24T13:11:29;22.80;99.90
44817;DHT22;30529;53.570;9.964;2023-07-24T13:13:55;22.80;99.90
44817;DHT22;30529;53.570;9.964;2023-07-24T13:16:22;22.80;99.90
44817;DHT22;30529;53.570;9.964;2023-07-24T13:18:48;22.80;99.90
44817;DHT22;30529;53.570;9.964;2023-07-24T13:21:14;22.80;99.90
44817;DHT22;30529;53.570;9.964;2023-07-24T13:23:41;22.70;99.90
44817;DHT22;30529;53.570;9.964;2023-07-24T13:26:07;22.80;99.90
44817;DHT22;30529;53.570;9.964;2023-07-24T13:28:34;22.70;99.90
44817;DHT22;30529;53.570;9.964;2023-07-24T13:31:14;22.80;99.90
44817;DHT22;30529;53.570;9.964;2023-07-24T13:33:40;22.80;99.90
44817;DHT22;30529;53.570;9.964;2023-07-24T13:36:07;22.90;99.90
44817;DHT22;30529;53.570;9.964;2023-07-24T13:38:33;22.90;99.90
44817;DHT22;30529;53.570;9.964;2023-07-24T13:40:59;23.00;99.90
44817;DHT22;30529;53.570;9.964;2023-07-24T13:43:25;23.20;99.90
44817;DHT22;30529;53.570;9.964;2023-07-24T13:45:51;23.30;99.90
44817;DHT22;30529;53.570;9.964;2023-07-24T13:48:17;23.40;99.90
44817;DHT22;30529;53.570;9.964;2023-07-24T13:50:43;23.40;99.90
44817;DHT22;30529;53.570;9.964;2023-07-24T13:53:09;23.50;99.90
44817;DHT22;30529;53.570;9.964;2023-07-24T13:55:35;23.50;99.90
44817;DHT22;30529;53.570;9.964;2023-07-24T13:58:01;23.50;99.90
44817;DHT22;30529;53.570;9.964;2023-07-24T14:00:27;23.50;99.90
44817;DHT22;30529;53.570;9.964;2023-07-24T14:02:53;23.50;99.90
44817;DHT22;30529;53.570;9.964;2023-07-24T14:05:19;23.50;99.90
44817;DHT22;30529;53.570;9.964;2023-07-24T14:07:45;23.40;99.90
44817;DHT22;30529;53.570;9.964;2023-07-24T14:10:11;23.40;99.90
44817;DHT22;30529;53.570;9.964;2023-07-24T14:12:37;23.40;99.90
44817;DHT22;30529;53.570;9.964;2023-07-24T14:15:04;23.40;99.90
44817;DHT22;30529;53.570;9.964;2023-07-24T14:17:30;23.60;99.90
44817;DHT22;30529;53.570;9.964;2023-07-24T14:19:56;23.60;99.90
44817;DHT22;30529;53.570;9.964;2023-07-24T14:22:22;23.50;99.90
44817;DHT22;30529;53.570;9.964;2023-07-24T14:24:48;23.60;99.90
44817;DHT22;30529;53.570;9.964;2023-07-24T14:27:14;23.70;99.90
44817;DHT22;30529;53.570;9.964;2023-07-24T14:29:40;23.80;99.90
44817;DHT22;30529;53.570;9.964;2023-07-24T14:32:06;23.70;99.90
44817;DHT22;30529;53.570;9.964;2023-07-24T14:34:33;23.80;99.90
44817;DHT22;30529;53.570;9.964;2023-07-24T14:36:59;23.80;99.90
44817;DHT22;30529;53.570;9.964;2023-07-24T14:39:25;23.70;99.90
44817;DHT22;30529;53.570;9.964;2023-07-24T14:41:51;23.60;99.90
44817;DHT22;30529;53.570;9.964;2023-07-24T14:44:17;23.50;99.90
44817;DHT22;30529;53.570;9.964;2023-07-24T14:46:43;23.50;99.90
44817;DHT22;30529;53.570;9.964;2023-07-24T14:49:09;23.50;99.90
44817;DHT22;30529;53.570;9.964;2023-07-24T14:51:36;23.50;99.90
44817;DHT22;30529;53.570;9.964;2023-07-24T14:54:02;23.40;99.90
44817;DHT22;30529;53.570;9.964;2023-07-24T14:56:28;23.40;99.90
44817;DHT22;30529;53.570;9.964;2023-07-24T14:58:53;23.30;99.90
44817;DHT22;30529;53.570;9.964;2023-07-24T15:01:20;23.30;99.90
44817;DHT22;30529;53.570;9.964;2023-07-24T15:03:46;23.20;99.90
44817;DHT22;30529;53.570;9.964;2023-07-24T15:06:12;23.10;99.90
44817;DHT22;30529;53.570;9.964;2023-07-24T15:08:38;23.00;99.90
44817;DHT22;30529;53.570;9.964;2023-07-24T15:11:04;23.00;99.90
44817;DHT22;30529;53.570;9.964;2023-07-24T15:13:30;23.00;99.90
44817;DHT22;30529;53.570;9.964;2023-07-24T15:15:56;23.00;99.90
44817;DHT22;30529;53.570;9.964;2023-07-24T15:18:23;22.90;99.90
44817;DHT22;30529;53.570;9.964;2023-07-24T15:20:49;22.80;99.90
44817;DHT22;30529;53.570;9.964;2023-07-24T15:23:15;22.80;99.90
44817;DHT22;30529;53.570;9.964;2023-07-24T15:25:41;22.80;99.90
44817;DHT22;30529;53.570;9.964;2023-07-24T15:28:07;22.80;99.90
44817;DHT22;30529;53.570;9.964;2023-07-24T15:30:33;22.80;99.90
44817;DHT22;30529;53.570;9.964;2023-07-24T15:32:59;22.80;99.90
44817;DHT22;30529;53.570;9.964;2023-07-24T15:35:26;22.20;99.90
44817;DHT22;30529;53.570;9.964;2023-07-24T15:37:52;21.50;99.90